Time;durP1;ratioP1;P1;durP2;ratioP2;P2;SDS_P1;SDS_P2;PMS_P1;PMS_P2;Temp;Humidity;BMP_temperature;BMP_pressure;BME280_temperature;BME280_humidity;BME280_pressure;Samples;Min_cycle;Max_cycle;Signal;HPM_P1;HPM_P2
2021/01/05 00:00:31;;;;;;;19.50;12.80;;;;;;;0.18;90.05;100378.22;5060140;28;20512;-69
2021/01/05 00:02:57;;;;;;;23.40;13.20;;;;;;;0.18;89.77;100372.94;5062073;28;20421;-69
2021/01/05 00:05:25;;;;;;;21.30;13.93;;;;;;;0.15;90.10;100370.47;5060391;28;20491;-69
2021/01/05 00:07:51;;;;;;;20.40;13.83;;;;;;;0.10;90.16;100381.19;5062481;28;20488;-68
2021/01/05 00:10:18;;;;;;;20.50;12.87;;;;;;;0.12;90.52;100379.34;5059554;28;20538;-69
2021/01/05 00:12:44;;;;;;;20.23;13.17;;;;;;;0.15;90.14;100370.47;5062606;28;20675;-70
2021/01/05 00:15:12;;;;;;;21.13;14.30;;;;;;;0.17;90.03;100368.59;5060601;28;20456;-70
2021/01/05 00:17:38;;;;;;;21.37;14.07;;;;;;;0.21;89.67;100379.84;5061538;28;20514;-70
2021/01/05 00:20:09;;;;;;;18.83;13.53;;;;;;;0.13;90.07;100383.66;5060137;28;20445;-69
2021/01/05 00:22:36;;;;;;;21.83;14.47;;;;;;;0.13;90.30;100385.47;5062328;28;20445;-70
2021/01/05 00:25:05;;;;;;;19.40;13.73;;;;;;;0.13;90.21;100382.84;5061340;28;20590;-68
2021/01/05 00:27:31;;;;;;;22.77;13.07;;;;;;;0.12;90.13;100376.72;5060718;28;20464;-68
2021/01/05 00:29:58;;;;;;;20.83;14.27;;;;;;;0.14;90.46;100388.03;5061232;28;20469;-69
2021/01/05 00:32:24;;;;;;;21.50;14.77;;;;;;;0.13;90.35;100388.94;5059662;28;20483;-68
2021/01/05 00:34:51;;;;;;;19.87;13.60;;;;;;;0.13;90.20;100386.31;5061644;28;20445;-69
2021/01/05 00:37:17;;;;;;;20.97;14.60;;;;;;;0.14;90.35;100379.25;5060105;28;20480;-69
2021/01/05 00:39:44;;;;;;;22.00;13.73;;;;;;;0.13;90.56;100378.41;5061810;28;20444;-69
2021/01/05 00:42:11;;;;;;;21.30;13.27;;;;;;;0.13;90.33;100383.66;5060299;28;20564;-69
2021/01/05 00:44:38;;;;;;;23.20;14.60;;;;;;;0.12;90.50;100383.75;5061137;28;20457;-69
2021/01/05 00:47:04;;;;;;;20.20;13.90;;;;;;;0.16;90.65;100378.28;5059612;28;20704;-69
2021/01/05 00:49:31;;;;;;;21.67;14.90;;;;;;;0.16;90.82;100382.69;5061663;28;20512;-69
2021/01/05 00:51:58;;;;;;;20.90;13.60;;;;;;;0.16;90.57;100383.53;5060037;28;20527;-69
2021/01/05 00:54:24;;;;;;;19.97;13.03;;;;;;;0.20;90.64;100384.25;5060851;28;20479;-68
2021/01/05 00:57:02;;;;;;;21.03;15.10;;;;;;;0.17;90.66;100377.38;5059681;28;20457;-69
2021/01/05 00:59:28;;;;;;;24.80;14.80;;;;;;;0.11;90.80;100382.91;5060683;28;20461;-70
2021/01/05 01:01:55;;;;;;;19.73;14.20;;;;;;;0.16;90.48;100380.91;5059671;28;20596;-69
2021/01/05 01:04:21;;;;;;;21.37;15.10;;;;;;;0.15;90.97;100379.19;5060866;28;20442;-70
2021/01/05 01:06:47;;;;;;;25.17;14.13;;;;;;;0.18;90.79;100386.09;5059811;28;20554;-70
2021/01/05 01:09:13;;;;;;;18.63;13.57;;;;;;;0.23;90.88;100385.91;5060698;28;21044;-70
2021/01/05 01:12:07;;;;;;;25.67;15.37;;;;;;;0.21;90.91;100383.34;5059768;28;20511;-70
2021/01/05 01:14:34;;;;;;;22.47;15.20;;;;;;;0.24;90.67;100391.06;5060844;28;20515;-69
2021/01/05 01:17:00;;;;;;;23.47;16.50;;;;;;;0.30;90.59;100388.16;5059341;28;20564;-70
2021/01/05 01:19:27;;;;;;;23.27;13.90;;;;;;;0.16;90.54;100385.31;5060969;28;20969;-70
2021/01/05 01:21:54;;;;;;;22.47;14.20;;;;;;;0.21;90.75;100377.19;5059536;28;20531;-70
2021/01/05 01:24:22;;;;;;;22.77;14.60;;;;;;;0.28;90.56;100386.50;5060680;28;20428;-69
2021/01/05 01:26:48;;;;;;;22.73;14.10;;;;;;;0.28;90.91;100381.25;5059484;28;20529;-70
2021/01/05 01:29:17;;;;;;;24.30;14.80;;;;;;;0.29;90.76;100388.22;5060231;28;20481;-69
2021/01/05 01:31:43;;;;;;;25.63;16.17;;;;;;;0.25;90.46;100381.41;5058970;28;20528;-69
2021/01/05 01:34:09;;;;;;;23.00;14.00;;;;;;;0.12;90.84;100368.84;5061151;28;20441;-69
2021/01/05 01:36:36;;;;;;;22.83;15.37;;;;;;;0.12;90.90;100384.63;5056762;28;20477;-69
2021/01/05 01:39:04;;;;;;;22.83;15.60;;;;;;;0.13;91.06;100382.84;5060376;28;20486;-69
2021/01/05 01:41:31;;;;;;;25.07;14.70;;;;;;;0.11;90.93;100384.69;5058546;28;20515;-69
2021/01/05 01:43:58;;;;;;;24.80;14.27;;;;;;;0.14;91.03;100384.50;5059612;28;20464;-69
2021/01/05 01:46:25;;;;;;;20.63;14.30;;;;;;;0.13;90.93;100388.09;5058459;28;20473;-69
2021/01/05 01:48:53;;;;;;;23.60;15.03;;;;;;;0.15;90.90;100383.59;5060639;28;20492;-69
2021/01/05 01:51:19;;;;;;;26.60;15.60;;;;;;;0.16;90.94;100386.16;5060303;28;20841;-69
2021/01/05 01:54:06;;;;;;;21.83;14.20;;;;;;;0.13;91.13;100386.31;5062030;28;20461;-69
2021/01/05 01:56:48;;;;;;;21.77;14.63;;;;;;;0.12;91.04;100389.00;5060041;28;20472;-69
2021/01/05 01:59:24;;;;;;;22.83;14.97;;;;;;;0.08;91.10;100385.66;5060933;28;20606;-69
2021/01/05 02:01:57;;;;;;;24.80;16.00;;;;;;;0.07;91.60;100375.22;5060595;28;20488;-69
2021/01/05 02:04:44;;;;;;;24.90;16.33;;;;;;;0.13;91.29;100378.41;5043054;28;20485;-68
2021/01/05 02:07:40;;;;;;;27.87;16.67;;;;;;;0.15;91.49;100380.97;5059741;28;20495;-69
2021/01/05 02:10:28;;;;;;;25.43;17.03;;;;;;;0.15;91.40;100379.19;5062542;28;20556;-69
2021/01/05 02:13:03;;;;;;;22.63;14.23;;;;;;;0.11;91.97;100382.91;5065412;28;20696;-69
2021/01/05 02:15:34;;;;;;;27.63;16.20;;;;;;;0.07;91.95;100385.72;5063681;28;20539;-68
2021/01/05 02:18:13;;;;;;;25.07;16.30;;;;;;;0.15;91.98;100376.56;5065260;28;20499;-69
2021/01/05 02:20:42;;;;;;;30.63;15.87;;;;;;;0.17;91.83;100390.50;5063291;28;20502;-69
2021/01/05 02:23:23;;;;;;;24.93;16.43;;;;;;;0.17;91.60;100387.88;5065415;28;20429;-69
2021/01/05 02:26:06;;;;;;;27.77;16.37;;;;;;;0.11;91.58;100389.94;5063460;28;20560;-69
2021/01/05 02:28:36;;;;;;;26.47;16.47;;;;;;;0.17;91.51;100393.16;5064551;28;20501;-69
2021/01/05 02:31:09;;;;;;;30.77;15.93;;;;;;;0.12;91.54;100379.34;5063058;28;20493;-69
2021/01/05 02:33:44;;;;;;;28.83;17.00;;;;;;;0.13;91.86;100377.56;5065335;28;20476;-69
2021/01/05 02:36:27;;;;;;;28.77;16.73;;;;;;;0.23;91.76;100380.63;5063003;28;20976;-69
2021/01/05 02:39:13;;;;;;;28.43;16.30;;;;;;;0.14;92.47;100389.78;5065296;28;20509;-69
2021/01/05 02:41:47;;;;;;;36.93;18.20;;;;;;;0.12;92.65;100386.38;5062891;28;20551;-69
2021/01/05 02:44:31;;;;;;;30.10;16.83;;;;;;;0.11;92.78;100389.94;5064173;28;20489;-69
2021/01/05 02:47:06;;;;;;;31.83;16.83;;;;;;;0.08;92.68;100379.56;5063215;28;20492;-69
2021/01/05 02:49:40;;;;;;;32.60;15.73;;;;;;;0.03;92.44;100382.38;5064036;28;20445;-69
2021/01/05 02:52:39;;;;;;;30.57;18.30;;;;;;;0.06;92.52;100386.66;5063208;28;20503;-69
2021/01/05 02:55:41;;;;;;;33.57;16.07;;;;;;;0.07;92.86;100373.47;5062984;28;20513;-69
2021/01/05 02:58:21;;;;;;;32.37;16.93;;;;;;;0.08;92.51;100377.78;5063732;28;20484;-69
2021/01/05 03:01:21;;;;;;;33.67;16.63;;;;;;;0.11;92.45;100371.53;5063047;28;20484;-69
2021/01/05 03:03:48;;;;;;;34.60;17.30;;;;;;;0.06;92.69;100373.53;5064783;28;20468;-69
2021/01/05 03:06:22;;;;;;;31.77;18.30;;;;;;;0.06;92.67;100371.75;5062709;28;20476;-69
2021/01/05 03:09:00;;;;;;;34.50;17.27;;;;;;;0.08;92.12;100376.94;5064279;28;20432;-69
2021/01/05 03:11:29;;;;;;;27.67;15.77;;;;;;;0.08;92.23;100374.31;5062518;28;20476;-70
2021/01/05 03:14:00;;;;;;;35.43;18.00;;;;;;;0.02;92.36;100378.06;5063580;28;20488;-70
2021/01/05 03:16:28;;;;;;;31.40;17.00;;;;;;;0.04;92.48;100378.00;5062516;28;21112;-70
2021/01/05 03:19:02;;;;;;;30.17;15.10;;;;;;;0.05;92.56;100375.28;5064172;28;20433;-70
2021/01/05 03:21:31;;;;;;;36.33;18.27;;;;;;;0.04;92.54;100381.47;5060927;28;20575;-69
2021/01/05 03:23:58;;;;;;;38.20;18.00;;;;;;;0.04;92.66;100383.25;5064205;28;20465;-70
2021/01/05 03:26:29;;;;;;;35.43;17.80;;;;;;;0.02;92.64;100377.19;5062371;28;20495;-67
2021/01/05 03:28:56;;;;;;;42.37;17.17;;;;;;;0.12;92.46;100376.72;5063523;28;20476;-70
2021/01/05 03:31:27;;;;;;;35.40;16.77;;;;;;;-0.01;92.37;100383.47;5062406;28;20507;-70
2021/01/05 03:33:55;;;;;;;34.63;16.40;;;;;;;0.02;92.43;100383.34;5064108;28;20464;-70
2021/01/05 03:36:21;;;;;;;37.47;18.80;;;;;;;0.05;92.48;100377.06;5061858;28;20787;-70
2021/01/05 03:38:47;;;;;;;29.73;15.00;;;;;;;0.07;91.87;100376.09;5063491;28;20516;-69
2021/01/05 03:41:14;;;;;;;35.50;16.60;;;;;;;0.09;92.12;100384.75;5062202;28;20493;-70
2021/01/05 03:43:40;;;;;;;41.50;18.23;;;;;;;0.01;91.94;100386.03;5063080;28;20907;-69
2021/01/05 03:46:07;;;;;;;36.20;16.50;;;;;;;0.03;91.90;100381.53;5062170;28;20575;-69
2021/01/05 03:48:33;;;;;;;34.70;16.80;;;;;;;0.02;91.88;100371.94;5063195;28;20472;-69
2021/01/05 03:51:02;;;;;;;28.20;16.60;;;;;;;0.03;91.90;100378.91;5061798;28;20504;-69
2021/01/05 03:53:28;;;;;;;29.27;14.93;;;;;;;0.04;91.70;100381.47;5063459;28;20457;-69
2021/01/05 03:55:55;;;;;;;25.00;14.83;;;;;;;0.05;91.44;100377.06;5061661;28;20560;-69
2021/01/05 03:58:21;;;;;;;28.03;16.87;;;;;;;0.05;91.45;100380.53;5062451;28;20521;-69
2021/01/05 04:00:47;;;;;;;26.50;15.87;;;;;;;0.03;91.27;100373.66;5061943;28;20504;-69
2021/01/05 04:03:14;;;;;;;25.90;13.93;;;;;;;0.03;91.19;100376.28;5063567;28;20449;-69
2021/01/05 04:05:40;;;;;;;27.00;15.13;;;;;;;0.09;91.56;100373.38;5061926;28;20538;-69
2021/01/05 04:08:07;;;;;;;34.47;17.60;;;;;;;0.17;91.08;100382.63;5062898;28;20486;-70
2021/01/05 04:10:33;;;;;;;32.93;16.77;;;;;;;0.10;91.12;100378.56;5061347;28;20500;-69
2021/01/05 04:12:59;;;;;;;30.53;15.10;;;;;;;0.11;91.10;100385.53;5063166;28;20483;-69
2021/01/05 04:15:27;;;;;;;30.97;16.70;;;;;;;0.05;91.35;100387.56;5061536;28;20480;-69
2021/01/05 04:17:54;;;;;;;32.53;16.40;;;;;;;0.03;91.45;100377.13;5062822;28;20519;-69
2021/01/05 04:20:23;;;;;;;31.27;18.00;;;;;;;0.10;91.43;100369.81;5061534;28;20473;-69
2021/01/05 04:22:49;;;;;;;38.10;17.67;;;;;;;0.11;91.20;100351.34;5062739;28;20488;-70
2021/01/05 04:25:18;;;;;;;35.83;17.43;;;;;;;0.07;91.23;100360.31;5061625;28;20933;-69
2021/01/05 04:27:44;;;;;;;33.53;16.30;;;;;;;0.09;91.46;100355.00;5062591;28;20492;-69
2021/01/05 04:30:18;;;;;;;33.33;17.43;;;;;;;0.07;91.26;100364.69;5060502;28;20473;-70
2021/01/05 04:32:44;;;;;;;32.23;17.77;;;;;;;0.07;91.33;100360.31;5062306;28;20531;-69
2021/01/05 04:35:11;;;;;;;36.23;16.93;;;;;;;0.07;91.37;100372.59;5061131;28;20448;-70
2021/01/05 04:37:38;;;;;;;41.47;18.43;;;;;;;0.01;91.62;100365.00;5062681;28;20499;-69
2021/01/05 04:40:06;;;;;;;33.47;17.37;;;;;;;0.06;91.58;100368.28;5060913;28;20512;-69
2021/01/05 04:42:36;;;;;;;36.20;16.97;;;;;;;0.13;91.44;100372.31;5062848;28;20525;-69
2021/01/05 04:45:06;;;;;;;32.63;17.50;;;;;;;0.09;91.39;100376.03;5062235;28;20551;-69
2021/01/05 04:47:40;;;;;;;34.87;16.10;;;;;;;0.09;91.62;100376.88;5061711;28;20465;-69
2021/01/05 04:50:10;;;;;;;30.83;16.77;;;;;;;0.08;91.51;100374.31;5061022;28;20448;-69
2021/01/05 04:52:55;;;;;;;32.07;17.87;;;;;;;0.06;91.72;100373.53;5062275;28;20480;-69
2021/01/05 04:55:43;;;;;;;36.30;16.67;;;;;;;0.07;91.48;100372.59;5060796;28;21003;-69
2021/01/05 04:58:12;;;;;;;27.50;14.50;;;;;;;0.07;91.56;100367.31;5057235;28;20536;-70
2021/01/05 05:00:41;;;;;;;36.50;17.17;;;;;;;0.05;91.49;100369.19;5060650;28;20505;-69
2021/01/05 05:03:14;;;;;;;28.60;15.93;;;;;;;0.09;91.66;100366.34;5062611;28;20826;-69
2021/01/05 05:05:50;;;;;;;29.63;17.33;;;;;;;0.17;91.36;100374.75;5060690;28;21186;-69
2021/01/05 05:08:37;;;;;;;29.53;16.37;;;;;;;0.17;91.17;100376.50;5062067;28;20459;-70
2021/01/05 05:11:06;;;;;;;31.30;17.27;;;;;;;0.13;91.24;100381.03;5060148;28;20473;-69
2021/01/05 05:13:39;;;;;;;27.70;15.87;;;;;;;0.14;91.45;100377.50;5062063;28;20479;-70
2021/01/05 05:16:14;;;;;;;34.13;17.23;;;;;;;0.17;91.50;100377.38;5060854;28;20492;-69
2021/01/05 05:18:52;;;;;;;32.70;16.43;;;;;;;0.16;91.69;100380.91;5062695;28;20437;-70
2021/01/05 05:21:40;;;;;;;29.93;15.23;;;;;;;0.20;91.81;100373.72;5060215;28;20481;-70
2021/01/05 05:24:30;;;;;;;26.87;15.67;;;;;;;0.12;91.65;100375.84;5048779;28;20483;-69
2021/01/05 05:26:59;;;;;;;35.23;16.37;;;;;;;0.12;91.55;100375.84;5035215;28;20504;-69
2021/01/05 05:29:47;;;;;;;28.77;16.20;;;;;;;0.12;91.88;100383.75;5056337;28;20510;-69
2021/01/05 05:32:19;;;;;;;40.57;16.60;;;;;;;0.16;91.90;100380.06;5034901;28;20509;-69
2021/01/05 05:34:54;;;;;;;29.80;16.93;;;;;;;0.13;91.52;100380.19;5053407;28;20457;-67
2021/01/05 05:37:42;;;;;;;27.10;15.23;;;;;;;0.16;91.55;100380.91;5059850;28;20468;-68
2021/01/05 05:40:21;;;;;;;28.00;14.67;;;;;;;0.17;91.57;100384.38;5046805;28;20484;-69
2021/01/05 05:42:59;;;;;;;32.37;16.13;;;;;;;0.13;91.67;100381.03;5060901;28;21038;-68
2021/01/05 05:45:27;;;;;;;39.17;17.63;;;;;;;0.15;91.94;100379.19;5062591;28;20935;-69
2021/01/05 05:47:59;;;;;;;31.47;16.07;;;;;;;0.16;92.16;100386.16;5064163;28;21256;-69
2021/01/05 05:50:30;;;;;;;31.37;17.77;;;;;;;0.11;92.17;100377.63;5063151;28;20464;-69
2021/01/05 05:52:59;;;;;;;33.60;16.70;;;;;;;0.11;92.10;100380.25;5064300;28;20544;-69
2021/01/05 05:55:34;;;;;;;32.67;17.03;;;;;;;0.09;92.27;100379.50;5062203;28;20535;-70
2021/01/05 05:58:01;;;;;;;28.50;15.40;;;;;;;0.11;91.98;100382.06;5063895;28;20483;-69
2021/01/05 06:00:32;;;;;;;33.00;15.07;;;;;;;0.14;91.77;100385.38;5063075;28;20465;-69
2021/01/05 06:02:59;;;;;;;40.00;17.70;;;;;;;0.12;92.12;100379.34;5064196;28;20515;-71
2021/01/05 06:05:32;;;;;;;37.83;15.40;;;;;;;0.09;92.09;100379.50;5063006;28;20495;-70
2021/01/05 06:07:59;;;;;;;34.37;16.83;;;;;;;0.17;91.92;100381.75;5064261;28;20449;-70
2021/01/05 06:10:25;;;;;;;34.03;17.27;;;;;;;0.11;92.00;100382.91;5062186;28;20467;-70
2021/01/05 06:12:53;;;;;;;29.93;15.40;;;;;;;0.04;92.28;100381.47;5063962;28;20532;-71
2021/01/05 06:15:19;;;;;;;33.40;17.40;;;;;;;0.11;92.38;100388.16;5062897;28;20475;-70
2021/01/05 06:17:45;;;;;;;40.60;17.80;;;;;;;0.08;92.28;100390.06;5063680;28;20460;-70
2021/01/05 06:20:13;;;;;;;34.60;16.50;;;;;;;0.06;92.29;100384.88;5062009;28;20495;-71
2021/01/05 06:22:39;;;;;;;36.17;17.40;;;;;;;0.09;92.34;100390.00;5063276;28;20545;-70
2021/01/05 06:25:07;;;;;;;33.83;17.73;;;;;;;0.05;92.32;100391.06;5061674;28;20615;-69
2021/01/05 06:27:33;;;;;;;35.40;17.40;;;;;;;0.09;92.37;100389.16;5063340;28;20974;-70
2021/01/05 06:30:01;;;;;;;36.50;17.70;;;;;;;0.12;92.70;100387.25;5063703;28;20445;-70
2021/01/05 06:32:27;;;;;;;30.97;16.77;;;;;;;0.12;92.26;100396.88;5061128;28;20473;-70
2021/01/05 06:34:53;;;;;;;31.33;16.57;;;;;;;0.13;92.19;100388.94;5064020;28;20445;-70
2021/01/05 06:37:19;;;;;;;27.70;15.53;;;;;;;0.41;93.25;100400.78;5062880;28;20509;-69
2021/01/05 06:39:46;;;;;;;32.67;16.60;;;;;;;0.22;92.05;100389.44;5063542;28;20441;-68
2021/01/05 06:42:12;;;;;;;35.87;17.50;;;;;;;0.37;92.37;100397.47;5062238;28;20496;-69
2021/01/05 06:44:38;;;;;;;36.50;18.23;;;;;;;0.35;92.65;100399.31;5063363;28;20503;-69
2021/01/05 06:47:05;;;;;;;33.87;17.27;;;;;;;0.33;92.14;100406.44;5061541;28;20472;-69
2021/01/05 06:49:31;;;;;;;38.97;18.70;;;;;;;0.26;92.57;100409.41;5063515;28;20471;-69
2021/01/05 06:51:57;;;;;;;45.50;18.07;;;;;;;0.31;92.62;100420.56;5062022;28;20500;-69
2021/01/05 06:54:23;;;;;;;43.43;17.13;;;;;;;0.35;92.73;100415.09;5061461;28;20433;-67
2021/01/05 06:56:51;;;;;;;37.30;17.43;;;;;;;0.35;92.70;100415.09;5059129;28;20491;-66
2021/01/05 06:59:17;;;;;;;36.87;19.23;;;;;;;0.36;92.53;100419.44;5062404;28;20488;-67
2021/01/05 07:01:50;;;;;;;33.80;16.80;;;;;;;0.34;92.82;100412.53;5060748;28;20519;-65
2021/01/05 07:04:17;;;;;;;35.20;17.17;;;;;;;0.29;92.77;100420.63;5063618;28;20421;-66
2021/01/05 07:06:43;;;;;;;37.77;19.40;;;;;;;0.19;92.83;100416.72;5059508;28;20487;-68
2021/01/05 07:09:10;;;;;;;39.23;19.20;;;;;;;0.16;93.19;100414.25;5062676;28;20484;-67
2021/01/05 07:11:36;;;;;;;38.53;17.23;;;;;;;0.17;92.96;100423.81;5061951;28;20515;-67
2021/01/05 07:14:02;;;;;;;31.70;16.60;;;;;;;0.15;93.15;100425.66;5063336;28;20457;-67
2021/01/05 07:16:28;;;;;;;36.90;18.40;;;;;;;0.15;93.36;100420.41;5061575;28;21059;-66
2021/01/05 07:18:54;;;;;;;43.47;18.60;;;;;;;0.12;93.32;100423.19;5063047;28;20449;-67
2021/01/05 07:21:21;;;;;;;39.63;18.90;;;;;;;0.13;93.41;100422.25;5061693;28;20535;-67
2021/01/05 07:23:48;;;;;;;37.40;19.57;;;;;;;0.10;93.27;100430.28;5062397;28;21032;-67
2021/01/05 07:26:14;;;;;;;41.03;19.30;;;;;;;0.07;93.42;100426.03;5059222;28;20495;-67
2021/01/05 07:28:40;;;;;;;39.30;20.57;;;;;;;0.07;93.50;100431.28;5062355;28;20457;-67
2021/01/05 07:31:06;;;;;;;37.90;21.60;;;;;;;0.13;93.44;100431.00;5060342;28;20541;-67
2021/01/05 07:33:33;;;;;;;41.70;19.47;;;;;;;0.13;93.14;100433.63;5058426;28;20475;-63
2021/01/05 07:35:59;;;;;;;39.13;19.30;;;;;;;0.14;93.39;100439.72;5055597;28;20469;-67
2021/01/05 07:38:26;;;;;;;38.30;20.77;;;;;;;0.11;93.29;100432.00;5061720;28;20906;-72
2021/01/05 07:40:52;;;;;;;38.30;18.53;;;;;;;0.21;93.14;100449.06;5054561;28;20464;-70
2021/01/05 07:43:18;;;;;;;40.37;20.70;;;;;;;0.10;93.17;100435.53;5061960;28;20493;-70
2021/01/05 07:45:45;;;;;;;40.73;20.80;;;;;;;0.13;93.09;100438.03;5059073;28;20488;-68
2021/01/05 07:48:11;;;;;;;43.50;22.80;;;;;;;0.11;93.25;100438.09;5061440;28;20480;-68
2021/01/05 07:50:37;;;;;;;40.30;18.17;;;;;;;0.15;93.04;100439.66;5060532;28;20465;-69
2021/01/05 07:53:03;;;;;;;44.73;22.37;;;;;;;0.15;93.19;100442.28;5061606;28;20996;-68
2021/01/05 07:55:32;;;;;;;42.70;20.73;;;;;;;0.15;93.23;100442.28;5059588;28;20465;-68
2021/01/05 07:57:59;;;;;;;48.30;20.20;;;;;;;0.22;93.40;100445.50;5061156;28;20456;-68
2021/01/05 08:00:27;;;;;;;38.07;19.47;;;;;;;0.18;93.24;100441.31;5060079;28;20523;-75
2021/01/05 08:02:54;;;;;;;38.53;18.50;;;;;;;0.17;93.20;100440.47;5061183;28;20488;-72
2021/01/05 08:05:23;;;;;;;39.80;19.47;;;;;;;0.14;93.29;100447.63;5060392;28;20460;-73
2021/01/05 08:07:49;;;;;;;48.87;22.57;;;;;;;0.17;93.24;100450.09;5060553;28;20488;-73
2021/01/05 08:10:17;;;;;;;44.60;20.07;;;;;;;0.13;93.21;100446.75;5059388;28;20926;-68
2021/01/05 08:12:45;;;;;;;40.17;20.87;;;;;;;0.21;93.28;100454.31;5061603;28;20484;-68
2021/01/05 08:15:13;;;;;;;42.53;21.37;;;;;;;0.17;92.97;100442.22;5057339;28;20457;-67
2021/01/05 08:17:39;;;;;;;43.03;21.57;;;;;;;0.23;92.96;100446.38;5060143;28;20452;-67
2021/01/05 08:20:06;;;;;;;38.90;21.20;;;;;;;0.16;93.19;100451.06;5059689;28;20453;-67
2021/01/05 08:22:32;;;;;;;37.47;19.30;;;;;;;0.15;93.34;100450.19;5061028;28;20484;-71
2021/01/05 08:24:59;;;;;;;35.10;18.00;;;;;;;0.21;93.04;100458.72;5060336;28;20805;-70
2021/01/05 08:27:25;;;;;;;42.43;20.07;;;;;;;0.23;93.10;100455.09;5059537;28;20468;-70
2021/01/05 08:29:52;;;;;;;34.17;17.30;;;;;;;0.27;92.34;100447.94;5060984;28;20457;-70
2021/01/05 08:32:18;;;;;;;40.90;19.03;;;;;;;0.25;92.80;100455.88;5058914;28;20499;-71
2021/01/05 08:34:44;;;;;;;33.90;18.50;;;;;;;0.28;92.65;100452.25;5060279;28;20453;-70
2021/01/05 08:37:11;;;;;;;38.07;19.50;;;;;;;0.31;92.39;100449.47;5059471;28;20469;-69
2021/01/05 08:39:37;;;;;;;31.10;16.43;;;;;;;0.34;92.25;100460.72;5060636;28;20437;-69
2021/01/05 08:42:04;;;;;;;31.97;18.30;;;;;;;0.37;92.24;100465.84;5043095;28;20485;-69
2021/01/05 08:44:30;;;;;;;27.80;16.27;;;;;;;0.38;91.77;100466.69;5060186;28;20477;-69
2021/01/05 08:47:01;;;;;;;40.57;17.03;;;;;;;0.32;91.72;100459.09;5059001;28;20473;-69
2021/01/05 08:49:27;;;;;;;28.13;16.13;;;;;;;0.28;91.41;100453.13;5059419;28;20465;-70
2021/01/05 08:51:53;;;;;;;33.30;16.10;;;;;;;0.28;91.59;100463.63;5059565;28;20513;-70
2021/01/05 08:54:20;;;;;;;32.33;16.77;;;;;;;0.29;91.95;100467.97;5060025;28;20852;-68
2021/01/05 08:56:46;;;;;;;28.83;15.40;;;;;;;0.32;91.97;100472.25;5059726;28;20477;-68
2021/01/05 08:59:12;;;;;;;28.43;16.57;;;;;;;0.31;91.52;100475.78;5059865;28;20516;-68
2021/01/05 09:01:38;;;;;;;32.27;15.93;;;;;;;0.36;91.36;100477.31;5058473;28;20505;-68
2021/01/05 09:04:06;;;;;;;32.10;16.40;;;;;;;0.34;91.65;100473.88;5060725;28;20803;-68
2021/01/05 09:06:32;;;;;;;35.03;16.87;;;;;;;0.35;91.70;100472.94;5057867;28;20472;-68
2021/01/05 09:08:58;;;;;;;34.33;16.87;;;;;;;0.33;91.66;100476.56;5060019;28;20444;-68
2021/01/05 09:11:26;;;;;;;34.20;17.83;;;;;;;0.34;91.16;100471.22;5059183;28;20479;-68
2021/01/05 09:13:53;;;;;;;31.03;15.47;;;;;;;0.37;91.33;100480.78;5057677;28;21017;-69
2021/01/05 09:16:23;;;;;;;32.97;15.67;;;;;;;0.39;91.10;100485.97;5058070;28;20525;-69
2021/01/05 09:18:50;;;;;;;30.63;16.57;;;;;;;0.36;91.42;100479.06;5062791;28;20469;-69
2021/01/05 09:21:18;;;;;;;32.53;17.67;;;;;;;0.45;91.37;100483.03;5062523;28;20468;-69
2021/01/05 09:23:44;;;;;;;31.43;15.80;;;;;;;0.45;91.11;100478.66;5063121;28;20448;-70
2021/01/05 09:26:18;;;;;;;34.57;18.80;;;;;;;0.47;90.69;100481.19;5058036;28;20469;-69
2021/01/05 09:28:44;;;;;;;31.20;17.07;;;;;;;0.40;90.83;100480.66;5063576;28;20493;-68
2021/01/05 09:31:11;;;;;;;31.60;17.30;;;;;;;0.40;90.95;100479.75;5061664;28;20469;-69
2021/01/05 09:33:37;;;;;;;36.97;19.40;;;;;;;0.38;91.27;100477.19;5063697;28;20468;-68
2021/01/05 09:36:04;;;;;;;36.10;17.33;;;;;;;0.42;90.94;100473.53;5061442;28;20487;-69
2021/01/05 09:38:31;;;;;;;29.47;17.63;;;;;;;0.47;91.13;100473.28;5063063;28;20487;-70
2021/01/05 09:40:57;;;;;;;33.30;17.90;;;;;;;0.44;90.99;100476.94;5061220;28;20464;-70
2021/01/05 09:43:23;;;;;;;37.63;16.63;;;;;;;0.45;91.09;100476.03;5061899;28;20476;-68
2021/01/05 09:45:49;;;;;;;28.63;15.30;;;;;;;0.44;91.38;100482.19;5061128;28;20997;-70
2021/01/05 09:48:16;;;;;;;27.93;15.60;;;;;;;0.49;91.15;100479.38;5062820;28;20471;-70
2021/01/05 09:50:45;;;;;;;33.27;16.27;;;;;;;0.55;91.19;100479.06;5061583;28;20575;-68
2021/01/05 09:53:12;;;;;;;28.30;16.03;;;;;;;0.44;90.83;100471.69;5062149;28;21607;-68
2021/01/05 09:55:39;;;;;;;33.73;17.40;;;;;;;0.52;90.98;100474.81;5062234;28;20506;-68
2021/01/05 09:58:06;;;;;;;29.53;16.00;;;;;;;0.50;90.86;100478.41;5062917;28;20949;-67
2021/01/05 10:00:32;;;;;;;30.00;17.30;;;;;;;0.50;90.79;100478.41;5060449;28;20481;-69
2021/01/05 10:02:58;;;;;;;33.07;16.23;;;;;;;0.51;90.99;100482.78;5063725;28;20495;-69
2021/01/05 10:05:24;;;;;;;29.20;16.47;;;;;;;0.55;90.54;100473.81;5061584;28;20469;-69
2021/01/05 10:07:51;;;;;;;28.00;14.77;;;;;;;0.45;90.31;100476.03;5062826;28;20452;-70
2021/01/05 10:10:19;;;;;;;25.60;13.27;;;;;;;0.43;90.89;100472.59;5060875;28;20515;-72
2021/01/05 10:12:46;;;;;;;27.40;15.70;;;;;;;0.46;90.90;100469.81;5063069;28;20453;-70
2021/01/05 10:15:14;;;;;;;29.53;15.60;;;;;;;0.54;90.91;100478.22;5059396;28;20476;-70
2021/01/05 10:17:40;;;;;;;31.87;17.13;;;;;;;0.53;90.62;100470.41;5060854;28;20445;-72
2021/01/05 10:20:08;;;;;;;26.43;15.40;;;;;;;0.51;90.60;100473.09;5061579;28;20953;-72
2021/01/05 10:22:49;;;;;;;30.97;16.10;;;;;;;0.45;90.58;100470.75;5061474;28;20488;-71
2021/01/05 10:25:16;;;;;;;29.10;15.80;;;;;;;0.54;90.40;100462.44;4968510;28;20731;-70
2021/01/05 10:27:42;;;;;;;26.40;14.20;;;;;;;0.55;90.20;100458.03;4977753;28;20472;-70
2021/01/05 10:30:11;;;;;;;25.90;14.60;;;;;;;0.56;90.12;100463.22;4977486;28;20495;-70
2021/01/05 10:32:52;;;;;;;27.73;15.37;;;;;;;0.59;89.80;100462.22;4979179;28;20453;-69
2021/01/05 10:35:20;;;;;;;27.47;14.87;;;;;;;0.56;89.77;100460.59;4921507;29;20460;-70
2021/01/05 10:37:47;;;;;;;31.87;15.03;;;;;;;0.62;89.86;100461.22;4922373;29;20526;-71
2021/01/05 10:40:15;;;;;;;30.70;15.70;;;;;;;0.69;89.94;100462.63;4920803;29;20443;-72
2021/01/05 10:42:42;;;;;;;26.43;15.73;;;;;;;0.74;89.88;100466.75;4922928;29;20518;-71
2021/01/05 10:45:11;;;;;;;30.93;16.00;;;;;;;0.71;90.46;100464.28;4920681;29;20466;-71
2021/01/05 10:47:39;;;;;;;34.60;16.60;;;;;;;0.70;90.27;100466.97;4923291;29;20542;-66
2021/01/05 10:50:07;;;;;;;32.20;18.10;;;;;;;0.73;90.24;100472.94;4921876;29;20459;-67
2021/01/05 10:52:33;;;;;;;31.20;16.23;;;;;;;0.73;90.19;100459.78;4922753;29;20459;-68
2021/01/05 10:55:00;;;;;;;33.87;17.23;;;;;;;0.72;90.08;100465.13;4929893;29;20485;-67
2021/01/05 10:57:26;;;;;;;32.50;17.27;;;;;;;0.71;90.24;100469.56;4926956;28;20872;-68
2021/01/05 10:59:52;;;;;;;34.93;17.40;;;;;;;0.69;90.15;100471.38;4922437;29;21075;-65
2021/01/05 11:02:19;;;;;;;37.33;17.60;;;;;;;0.73;90.11;100472.09;4958646;28;20489;-66
2021/01/05 11:04:46;;;;;;;28.93;18.43;;;;;;;0.74;90.28;100472.00;5013416;28;20455;-72
2021/01/05 11:07:14;;;;;;;30.90;17.63;;;;;;;0.80;89.91;100468.25;5009346;28;20509;-71
2021/01/05 11:09:41;;;;;;;33.90;15.63;;;;;;;0.80;89.54;100465.63;5019877;28;20478;-70
2021/01/05 11:12:10;;;;;;;31.93;16.60;;;;;;;0.77;89.98;100463.13;5032398;28;20495;-73
2021/01/05 11:14:37;;;;;;;28.47;17.07;;;;;;;0.81;89.69;100451.53;5061022;28;20507;-69
2021/01/05 11:17:03;;;;;;;33.87;17.10;;;;;;;0.80;90.16;100459.50;5061229;28;20496;-73
2021/01/05 11:19:30;;;;;;;34.43;19.53;;;;;;;0.67;89.99;100448.69;5062122;28;20964;-72
2021/01/05 11:21:59;;;;;;;40.97;18.63;;;;;;;0.70;90.11;100440.66;5059756;28;20548;-73
2021/01/05 11:24:26;;;;;;;35.37;19.37;;;;;;;0.68;90.38;100445.16;5061938;28;20483;-72
2021/01/05 11:26:53;;;;;;;41.00;18.80;;;;;;;0.75;90.30;100443.94;5059563;28;20477;-72